Time;durP1;ratioP1;P1;durP2;ratioP2;P2;SDS_P1;SDS_P2;PMS_P1;PMS_P2;Temp;Humidity;BMP_temperature;BMP_pressure;BME280_temperature;BME280_humidity;BME280_pressure;Samples;Min_cycle;Max_cycle;Signal;HPM_P1;HPM_P2
2021/12/27 00:00:20;;;;;;;8.18;3.28;;;;;;;18.60;44.65;100119.63;5033287;28;20025;-68
2021/12/27 00:02:48;;;;;;;6.05;3.10;;;;;;;18.57;44.87;100120.72;5032137;28;20034;-68
2021/12/27 00:05:13;;;;;;;8.70;3.63;;;;;;;18.56;44.74;100118.25;5032909;28;20044;-68
2021/12/27 00:07:38;;;;;;;10.07;3.35;;;;;;;18.53;45.06;100121.16;5033217;28;20033;-68
2021/12/27 00:10:05;;;;;;;7.38;3.50;;;;;;;18.49;45.04;100120.63;5032300;28;20030;-68
2021/12/27 00:12:31;;;;;;;7.93;3.50;;;;;;;18.47;45.14;100120.78;5032983;28;20018;-68
2021/12/27 00:14:56;;;;;;;7.45;3.42;;;;;;;18.46;44.94;100118.28;5032674;28;20025;-69
2021/12/27 00:17:21;;;;;;;8.13;3.37;;;;;;;18.42;45.03;100111.63;5032053;28;20045;-68
2021/12/27 00:19:47;;;;;;;9.55;3.65;;;;;;;18.39;44.84;100117.19;5032555;28;20270;-68
2021/12/27 00:22:13;;;;;;;7.82;3.45;;;;;;;18.40;44.87;100114.41;5032846;28;20053;-68
2021/12/27 00:24:38;;;;;;;6.57;3.28;;;;;;;18.38;44.97;100115.53;5032168;28;20385;-68
2021/12/27 00:27:03;;;;;;;8.00;3.60;;;;;;;18.34;45.24;100109.72;5032666;28;20026;-68
2021/12/27 00:29:28;;;;;;;6.25;3.08;;;;;;;18.34;45.01;100115.00;5032748;28;20025;-69
2021/12/27 00:31:54;;;;;;;8.10;3.55;;;;;;;18.32;45.33;100106.38;5031691;28;20041;-68
2021/12/27 00:34:19;;;;;;;10.63;3.72;;;;;;;18.31;45.10;100107.38;5032201;28;20034;-69
2021/12/27 00:36:44;;;;;;;7.73;3.30;;;;;;;18.29;45.39;100101.38;5032317;28;20017;-68
2021/12/27 00:39:10;;;;;;;8.27;3.55;;;;;;;18.27;45.36;100098.88;5032054;28;20742;-67
2021/12/27 00:41:38;;;;;;;6.38;3.30;;;;;;;18.26;45.39;100101.66;5032680;28;20025;-67
2021/12/27 00:44:03;;;;;;;8.63;3.10;;;;;;;18.23;45.27;100086.97;5031577;28;20025;-67
2021/12/27 00:46:29;;;;;;;6.78;3.28;;;;;;;18.22;45.21;100084.47;5032742;28;20017;-67
2021/12/27 00:48:54;;;;;;;9.40;3.72;;;;;;;18.20;45.63;100081.13;5032215;28;20038;-67
2021/12/27 00:51:19;;;;;;;5.93;3.33;;;;;;;18.18;45.57;100073.38;5031973;28;20060;-66
2021/12/27 00:53:44;;;;;;;8.25;3.35;;;;;;;18.17;45.30;100069.09;5032242;28;20034;-67
2021/12/27 00:56:10;;;;;;;7.75;3.63;;;;;;;18.16;45.47;100069.22;5032630;28;20030;-66
2021/12/27 00:58:35;;;;;;;6.28;3.33;;;;;;;18.13;45.74;100071.19;5031782;28;20025;-67
2021/12/27 01:01:01;;;;;;;8.07;3.47;;;;;;;18.13;45.53;100068.56;5034020;28;20033;-67
2021/12/27 01:03:27;;;;;;;7.32;3.38;;;;;;;18.11;45.60;100067.03;5036358;28;20409;-67
2021/12/27 01:05:52;;;;;;;8.85;2.97;;;;;;;18.10;45.26;100063.56;5035119;28;20036;-67
2021/12/27 01:08:17;;;;;;;6.68;3.47;;;;;;;18.09;45.57;100061.06;5036546;28;20033;-67
2021/12/27 01:13:43;;;;;;;5.75;3.30;;;;;;;18.06;45.41;100067.44;5035568;28;20120;-67
2021/12/27 01:16:10;;;;;;;8.00;3.20;;;;;;;18.05;45.81;100063.13;5036220;28;20049;-68
2021/12/27 01:18:49;;;;;;;7.95;3.55;;;;;;;18.03;45.48;100067.72;5036142;28;20549;-67
2021/12/27 01:21:20;;;;;;;9.98;3.33;;;;;;;18.02;45.63;100062.59;5035602;28;20040;-68
2021/12/27 01:23:47;;;;;;;7.03;3.90;;;;;;;17.99;45.68;100058.47;5035517;28;20140;-68
2021/12/27 01:26:13;;;;;;;7.18;3.20;;;;;;;18.00;45.14;100061.91;5035371;28;20030;-68
2021/12/27 01:28:39;;;;;;;7.28;3.50;;;;;;;18.00;45.26;100059.28;5036116;28;20444;-67
2021/12/27 01:31:04;;;;;;;9.27;3.60;;;;;;;18.02;45.54;100058.16;5036125;28;20030;-66
2021/12/27 01:33:31;;;;;;;7.45;3.25;;;;;;;18.04;45.53;100060.63;5035527;28;20025;-66
2021/12/27 01:35:57;;;;;;;5.43;3.00;;;;;;;18.06;45.55;100059.53;5036081;28;20036;-67
2021/12/27 01:38:22;;;;;;;6.97;3.15;;;;;;;18.07;45.27;100066.47;5036390;28;20025;-67
2021/12/27 01:40:51;;;;;;;6.72;3.42;;;;;;;18.07;45.31;100053.31;5035378;28;20034;-67
2021/12/27 01:43:29;;;;;;;7.07;3.22;;;;;;;18.09;45.10;100055.78;5036353;28;20104;-67
2021/12/27 01:46:05;;;;;;;8.57;3.60;;;;;;;18.10;45.04;100050.38;5037245;28;20049;-67
2021/12/27 01:48:37;;;;;;;5.88;3.38;;;;;;;18.10;44.94;100054.81;5037708;28;20480;-67
2021/12/27 01:51:09;;;;;;;6.07;3.20;;;;;;;18.10;45.27;100052.16;5039331;28;20084;-68
2021/12/27 01:53:36;;;;;;;6.63;3.10;;;;;;;18.10;45.04;100058.28;5041401;28;20481;-67
2021/12/27 01:56:03;;;;;;;6.47;3.13;;;;;;;18.08;45.10;100049.66;5042481;28;20029;-67
2021/12/27 01:58:29;;;;;;;7.07;3.42;;;;;;;18.09;44.90;100048.69;5044482;28;20026;-68
2021/12/27 02:00:58;;;;;;;8.20;4.05;;;;;;;18.10;44.83;100044.25;5037320;28;20024;-68
2021/12/27 02:03:27;;;;;;;9.68;3.30;;;;;;;18.08;45.07;100041.75;5034527;28;20488;-68
2021/12/27 02:05:53;;;;;;;7.55;4.05;;;;;;;18.09;44.79;100039.97;5035078;28;20397;-68
2021/12/27 02:08:19;;;;;;;7.43;3.67;;;;;;;18.08;45.06;100041.75;5034538;28;20036;-68
2021/12/27 02:10:44;;;;;;;7.68;3.53;;;;;;;18.08;45.16;100038.31;5034967;28;20411;-67
2021/12/27 02:13:10;;;;;;;6.20;3.17;;;;;;;18.06;45.00;100029.72;5034745;28;20113;-67
2021/12/27 02:15:36;;;;;;;7.40;3.17;;;;;;;18.07;44.80;100031.34;5034366;28;20018;-67
2021/12/27 02:18:03;;;;;;;7.13;3.55;;;;;;;18.06;45.24;100038.44;5034855;28;20473;-67
2021/12/27 02:20:32;;;;;;;8.15;3.75;;;;;;;18.02;44.93;100028.31;5034865;28;20041;-67
2021/12/27 02:23:01;;;;;;;8.52;3.50;;;;;;;18.06;45.14;100037.63;5033407;28;20053;-67
2021/12/27 02:25:29;;;;;;;8.00;3.38;;;;;;;18.05;45.43;100036.78;5035123;28;20045;-67
2021/12/27 02:27:54;;;;;;;7.90;3.20;;;;;;;18.08;45.40;100036.47;5034703;28;20045;-67
2021/12/27 02:30:30;;;;;;;7.80;3.53;;;;;;;18.08;45.20;100033.84;5034103;28;20057;-67
2021/12/27 02:33:00;;;;;;;7.90;3.38;;;;;;;18.09;45.22;100030.25;5034532;28;20030;-67
2021/12/27 02:35:31;;;;;;;7.43;3.40;;;;;;;18.10;45.31;100029.28;5034605;28;20025;-67
2021/12/27 02:37:58;;;;;;;6.50;3.20;;;;;;;18.10;45.29;100034.56;5033888;28;20051;-67
2021/12/27 02:40:25;;;;;;;8.73;3.40;;;;;;;18.11;45.18;100036.19;5034640;28;20116;-67
2021/12/27 02:43:01;;;;;;;5.70;3.30;;;;;;;18.12;45.22;100042.31;5033716;28;20088;-67
2021/12/27 02:45:28;;;;;;;6.60;3.22;;;;;;;18.12;45.03;100042.31;5034174;28;20128;-67
2021/12/27 02:47:55;;;;;;;8.43;3.22;;;;;;;18.10;45.14;100031.91;5034148;28;20049;-67
2021/12/27 02:50:21;;;;;;;8.27;3.60;;;;;;;18.09;45.28;100035.53;5034556;28;20029;-68
2021/12/27 02:52:46;;;;;;;8.13;3.58;;;;;;;18.09;45.13;100027.63;5033478;28;20067;-67
2021/12/27 02:55:15;;;;;;;7.72;3.45;;;;;;;18.09;44.99;100016.25;5034195;28;20057;-67
2021/12/27 02:57:41;;;;;;;7.13;3.08;;;;;;;18.09;45.16;100014.44;5033133;28;20032;-67
2021/12/27 03:00:15;;;;;;;7.20;3.35;;;;;;;18.08;45.19;100014.56;5034433;28;20072;-67
2021/12/27 03:02:42;;;;;;;7.25;3.42;;;;;;;18.06;45.27;100014.72;5034159;28;20108;-67
2021/12/27 03:05:07;;;;;;;6.43;3.40;;;;;;;18.06;44.76;100021.81;5033413;28;20033;-67
2021/12/27 03:07:33;;;;;;;6.38;3.25;;;;;;;18.05;44.81;100018.31;5033918;28;20547;-68
2021/12/27 03:09:59;;;;;;;7.25;3.33;;;;;;;18.04;45.00;100008.75;5033817;28;20357;-67
2021/12/27 03:12:24;;;;;;;7.75;3.67;;;;;;;18.05;45.29;100007.78;5033239;28;20013;-68
2021/12/27 03:14:52;;;;;;;7.23;3.60;;;;;;;18.07;45.36;100003.19;5033472;28;20495;-67
2021/12/27 03:17:17;;;;;;;8.43;3.60;;;;;;;18.08;45.54;99998.75;5034107;28;20614;-67
2021/12/27 03:19:43;;;;;;;7.35;3.65;;;;;;;18.10;45.54;100005.56;5032776;28;20025;-67
2021/12/27 03:22:08;;;;;;;6.82;3.10;;;;;;;18.09;45.61;99997.78;5033422;28;20036;-67
2021/12/27 03:24:33;;;;;;;7.30;3.47;;;;;;;18.11;45.59;99995.81;5032894;28;20036;-67
2021/12/27 03:26:58;;;;;;;8.15;3.25;;;;;;;18.11;45.59;99996.66;5032729;28;20408;-67
2021/12/27 03:29:23;;;;;;;9.03;4.17;;;;;;;18.11;45.48;99998.47;5033606;28;20021;-68
2021/12/27 03:31:50;;;;;;;7.83;3.47;;;;;;;18.11;45.43;99999.28;5033567;28;20281;-68
2021/12/27 03:34:15;;;;;;;8.88;3.60;;;;;;;18.10;45.31;99997.63;5033012;28;20607;-68
2021/12/27 03:36:42;;;;;;;8.23;3.60;;;;;;;18.12;45.52;99994.88;5033278;28;20045;-68
2021/12/27 03:39:10;;;;;;;6.88;3.50;;;;;;;18.13;45.55;99994.72;5033486;28;20706;-67
2021/12/27 03:41:36;;;;;;;6.55;3.20;;;;;;;18.13;45.65;99991.22;5032719;28;20116;-68
2021/12/27 03:44:02;;;;;;;10.07;3.33;;;;;;;18.15;45.65;99999.00;5033011;28;20029;-68
2021/12/27 03:46:34;;;;;;;8.05;3.05;;;;;;;18.15;45.71;99991.94;5033154;28;20339;-68
2021/12/27 03:48:59;;;;;;;6.25;3.13;;;;;;;18.16;45.71;99990.94;5032539;28;20485;-68
2021/12/27 03:51:25;;;;;;;6.43;3.00;;;;;;;18.18;45.72;99985.53;5033339;28;20079;-68
2021/12/27 03:53:51;;;;;;;5.88;3.45;;;;;;;18.16;45.68;99980.38;5032357;28;20095;-68
2021/12/27 03:56:17;;;;;;;6.45;2.80;;;;;;;18.18;45.59;99986.34;5033706;28;20028;-68
2021/12/27 03:59:18;;;;;;;8.23;3.60;;;;;;;18.17;45.67;99971.50;5033336;28;20453;-68
2021/12/27 04:01:43;;;;;;;7.72;3.42;;;;;;;18.18;45.49;99969.69;5032500;28;20488;-67
2021/12/27 04:04:08;;;;;;;8.03;3.53;;;;;;;18.18;45.59;99967.06;5033695;28;20034;-67
2021/12/27 04:06:33;;;;;;;8.77;3.50;;;;;;;18.16;45.60;99966.38;5033390;28;20793;-66
2021/12/27 04:08:58;;;;;;;10.70;3.80;;;;;;;18.17;45.36;99968.06;5032151;28;20666;-67
2021/12/27 04:11:24;;;;;;;6.75;3.22;;;;;;;18.16;45.73;99961.09;5033406;28;20380;-68
2021/12/27 04:13:49;;;;;;;8.35;3.85;;;;;;;18.17;45.67;99960.97;5032534;28;20494;-67
2021/12/27 04:16:14;;;;;;;8.17;3.53;;;;;;;18.18;45.83;99956.50;5032472;28;20029;-68
2021/12/27 04:18:39;;;;;;;5.68;3.00;;;;;;;18.18;45.78;99953.88;5032856;28;20266;-68
2021/12/27 04:21:05;;;;;;;8.07;2.78;;;;;;;18.17;45.81;99953.06;5033095;28;20041;-68
2021/12/27 04:23:30;;;;;;;6.35;3.15;;;;;;;18.18;45.86;99952.06;5031641;28;20053;-68
2021/12/27 04:25:55;;;;;;;9.85;3.70;;;;;;;18.19;45.66;99951.09;5032597;28;20033;-68
2021/12/27 04:28:21;;;;;;;6.85;3.30;;;;;;;18.18;45.54;99944.16;5033042;28;20029;-68
2021/12/27 04:30:47;;;;;;;8.52;3.33;;;;;;;18.18;45.59;99943.31;5031964;28;20017;-69
2021/12/27 04:33:12;;;;;;;7.35;3.10;;;;;;;18.19;45.50;99942.34;5032776;28;20032;-67
2021/12/27 04:35:38;;;;;;;9.30;3.55;;;;;;;18.18;45.86;99933.59;5032637;28;20021;-67
2021/12/27 04:38:04;;;;;;;7.50;3.03;;;;;;;18.18;45.73;99940.69;5031649;28;20040;-67
2021/12/27 04:40:35;;;;;;;7.15;3.17;;;;;;;18.18;45.46;99940.69;5032626;28;20026;-67
2021/12/27 04:43:06;;;;;;;6.00;3.17;;;;;;;18.17;45.60;99934.59;5032299;28;20026;-67
2021/12/27 04:45:31;;;;;;;6.93;3.20;;;;;;;18.17;45.79;99929.31;5032865;28;20072;-67
2021/12/27 04:48:01;;;;;;;7.30;3.90;;;;;;;18.17;45.84;99926.69;5032441;28;20045;-67
2021/12/27 04:50:30;;;;;;;7.80;3.33;;;;;;;18.18;45.87;99930.97;5031855;28;20465;-67
2021/12/27 04:52:55;;;;;;;8.68;3.67;;;;;;;18.17;45.71;99925.88;5032327;28;20112;-68
2021/12/27 04:55:23;;;;;;;9.82;3.25;;;;;;;18.19;45.87;99929.19;5034165;28;20080;-68
2021/12/27 04:57:48;;;;;;;8.88;3.25;;;;;;;18.16;45.73;99930.28;5032928;28;20381;-68
2021/12/27 05:00:14;;;;;;;6.05;3.40;;;;;;;18.19;45.78;99931.81;5032703;28;20025;-68
2021/12/27 05:02:39;;;;;;;7.30;3.45;;;;;;;18.19;45.84;99929.19;5032273;28;20021;-68
2021/12/27 05:05:05;;;;;;;7.53;3.30;;;;;;;18.18;45.90;99927.50;5031725;28;20033;-68
2021/12/27 05:07:30;;;;;;;7.97;3.75;;;;;;;18.17;45.81;99921.41;5032330;28;20078;-68
2021/12/27 05:09:58;;;;;;;7.95;3.30;;;;;;;18.18;45.87;99924.88;5032371;28;20028;-68
2021/12/27 05:12:24;;;;;;;7.18;3.17;;;;;;;18.17;45.86;99931.97;5031853;28;20021;-68
2021/12/27 05:14:49;;;;;;;6.38;3.00;;;;;;;18.18;46.15;99938.88;5032252;28;20025;-68
2021/12/27 05:17:15;;;;;;;6.00;3.00;;;;;;;18.18;46.12;99930.97;5032379;28;20025;-68
2021/12/27 05:19:40;;;;;;;5.65;3.22;;;;;;;18.18;45.97;99933.59;5031330;28;20084;-68
2021/12/27 05:22:05;;;;;;;7.00;3.00;;;;;;;18.19;45.96;99929.19;5032109;28;20033;-68
2021/12/27 05:24:30;;;;;;;7.13;2.83;;;;;;;18.19;46.01;99930.00;5032415;28;20473;-68
2021/12/27 05:26:56;;;;;;;6.80;2.97;;;;;;;18.20;46.18;99925.53;5031345;28;20793;-68
2021/12/27 05:29:22;;;;;;;7.40;3.83;;;;;;;18.19;45.79;99923.91;5032288;28;20266;-68
2021/12/27 05:31:47;;;;;;;8.43;3.20;;;;;;;18.19;45.84;99918.63;5031937;28;20044;-68
2021/12/27 05:34:15;;;;;;;7.57;3.28;;;;;;;18.20;46.02;99917.63;5031809;28;20431;-68
2021/12/27 05:36:42;;;;;;;5.88;3.00;;;;;;;18.19;45.80;99908.06;5032039;28;20389;-69
2021/12/27 05:39:09;;;;;;;6.65;2.97;;;;;;;18.18;46.07;99909.88;5032115;28;20036;-68
2021/12/27 05:41:34;;;;;;;7.43;2.90;;;;;;;18.19;46.00;99906.25;5031499;28;20049;-68
2021/12/27 05:43:59;;;;;;;8.23;3.10;;;;;;;18.19;46.05;99901.00;5031877;28;20068;-68
2021/12/27 05:46:25;;;;;;;8.10;3.28;;;;;;;18.20;46.32;99913.22;5031337;28;20388;-68
2021/12/27 05:48:53;;;;;;;10.83;3.20;;;;;;;18.20;46.05;99905.28;5034807;28;20029;-68
2021/12/27 05:51:18;;;;;;;7.43;2.83;;;;;;;18.21;46.20;99903.47;5035614;28;20278;-68
2021/12/27 05:53:43;;;;;;;6.45;2.95;;;;;;;18.20;46.12;99909.72;5034602;28;20036;-67
2021/12/27 05:56:09;;;;;;;8.00;3.20;;;;;;;18.20;45.83;99918.47;5035595;28;20449;-67
2021/12/27 05:58:34;;;;;;;6.75;3.45;;;;;;;18.21;46.24;99916.66;5035504;28;20025;-67
2021/12/27 06:01:00;;;;;;;6.60;3.03;;;;;;;18.21;46.30;99919.31;5034605;28;20025;-67
2021/12/27 06:03:25;;;;;;;7.55;3.08;;;;;;;18.21;46.29;99911.38;5035381;28;20263;-67
2021/12/27 06:05:51;;;;;;;8.93;3.25;;;;;;;18.21;46.16;99917.47;5034874;28;20496;-67
2021/12/27 06:08:16;;;;;;;5.88;2.40;;;;;;;18.22;46.37;99915.69;5034683;28;20037;-67
2021/12/27 06:10:44;;;;;;;7.05;2.55;;;;;;;18.22;46.18;99913.06;5035017;28;20036;-67
2021/12/27 06:13:09;;;;;;;6.18;2.65;;;;;;;18.24;46.46;99909.28;5035387;28;20029;-67
2021/12/27 06:15:35;;;;;;;7.50;3.00;;;;;;;18.25;45.80;99910.13;5034850;28;20366;-67
2021/12/27 06:18:00;;;;;;;6.60;3.08;;;;;;;18.24;45.84;99904.00;5034989;28;20029;-69
2021/12/27 06:20:25;;;;;;;7.70;2.80;;;;;;;18.27;46.13;99910.81;5034965;28;20465;-67
2021/12/27 06:22:55;;;;;;;6.43;2.50;;;;;;;18.29;46.35;99909.69;5033900;28;20033;-67
2021/12/27 06:25:20;;;;;;;5.22;2.15;;;;;;;18.34;46.44;99911.03;5035071;28;20041;-67
2021/12/27 06:27:45;;;;;;;7.00;2.67;;;;;;;18.36;46.34;99909.91;5034911;28;20036;-67
2021/12/27 06:30:13;;;;;;;5.72;2.40;;;;;;;18.40;46.28;99913.06;5034350;28;20469;-69
2021/12/27 06:32:39;;;;;;;7.28;2.60;;;;;;;18.43;46.64;99904.88;5035024;28;20040;-69
2021/12/27 06:35:07;;;;;;;7.40;2.70;;;;;;;18.46;46.48;99904.56;5034974;28;20018;-68
2021/12/27 06:37:33;;;;;;;6.22;2.40;;;;;;;18.49;46.38;99899.00;5033623;28;20191;-68
2021/12/27 06:39:58;;;;;;;9.15;2.67;;;;;;;18.51;46.69;99893.56;5034535;28;20079;-68
2021/12/27 06:42:23;;;;;;;8.18;2.50;;;;;;;18.52;46.52;99900.50;5034748;28;20026;-68
2021/12/27 06:44:49;;;;;;;7.57;2.58;;;;;;;18.55;46.44;99900.19;5033358;28;20026;-68
2021/12/27 06:47:14;;;;;;;6.05;2.40;;;;;;;18.56;46.68;99897.41;5034378;28;20024;-69
2021/12/27 06:49:42;;;;;;;6.35;2.42;;;;;;;18.58;46.58;99889.34;5033401;28;20025;-69
2021/12/27 06:52:08;;;;;;;8.10;2.10;;;;;;;18.59;46.68;99886.56;5034479;28;20037;-67
2021/12/27 06:54:37;;;;;;;7.78;2.72;;;;;;;18.60;46.49;99880.31;5034539;28;20037;-69
2021/12/27 06:57:03;;;;;;;7.30;2.20;;;;;;;18.63;46.83;99884.47;5033314;28;20045;-66
2021/12/27 06:59:28;;;;;;;8.23;2.28;;;;;;;18.65;46.94;99874.56;5034130;28;20025;-66
2021/12/27 07:01:54;;;;;;;7.85;2.38;;;;;;;18.66;46.90;99876.25;5033901;28;20026;-68
2021/12/27 07:04:19;;;;;;;5.88;2.35;;;;;;;18.68;47.04;99871.63;5033506;28;20358;-69
2021/12/27 07:06:44;;;;;;;5.53;2.38;;;;;;;18.70;47.05;99872.31;5033961;28;20029;-68
2021/12/27 07:09:10;;;;;;;7.90;2.42;;;;;;;18.71;47.05;99865.19;5033765;28;20037;-68
2021/12/27 07:11:36;;;;;;;6.72;1.90;;;;;;;18.71;47.10;99863.41;5033383;28;20038;-68
2021/12/27 07:14:01;;;;;;;7.75;2.35;;;;;;;18.72;46.94;99867.69;5033292;28;20045;-69
2021/12/27 07:16:27;;;;;;;7.78;2.38;;;;;;;18.73;47.10;99873.81;5033732;28;20025;-67
2021/12/27 07:18:52;;;;;;;5.53;2.25;;;;;;;18.72;46.78;99867.69;5032726;28;20036;-69
2021/12/27 07:21:17;;;;;;;5.53;2.30;;;;;;;18.74;46.91;99867.53;5033758;28;20473;-68
2021/12/27 07:23:44;;;;;;;6.65;2.17;;;;;;;18.72;46.79;99859.78;5033349;28;20049;-67
2021/12/27 07:26:15;;;;;;;10.18;2.53;;;;;;;18.75;46.73;99853.38;5033415;28;20375;-68
2021/12/27 07:28:41;;;;;;;7.22;2.47;;;;;;;18.73;46.74;99853.53;5033567;28;20045;-68
2021/12/27 07:31:07;;;;;;;6.95;2.30;;;;;;;18.74;46.86;99863.13;5033658;28;20029;-68
2021/12/27 07:33:33;;;;;;;7.63;2.13;;;;;;;18.75;46.94;99863.94;5033024;28;20140;-68
2021/12/27 07:35:59;;;;;;;6.03;2.15;;;;;;;18.74;46.70;99860.47;5033371;28;20373;-68
2021/12/27 07:38:24;;;;;;;7.30;1.98;;;;;;;18.75;46.90;99850.72;5033631;28;20029;-69
2021/12/27 07:40:49;;;;;;;6.40;2.20;;;;;;;18.76;47.10;99855.88;5032493;28;20389;-65
2021/12/27 07:43:14;;;;;;;9.73;1.97;;;;;;;18.78;46.99;99864.44;5033565;28;20037;-68
2021/12/27 07:45:40;;;;;;;6.60;2.27;;;;;;;18.79;47.04;99868.75;5032929;28;20278;-68
2021/12/27 07:48:09;;;;;;;9.10;2.42;;;;;;;18.81;47.23;99869.44;5032239;28;20290;-67
2021/12/27 07:50:36;;;;;;;4.57;2.10;;;;;;;18.83;47.02;99869.28;5033415;28;20018;-67
2021/12/27 07:53:03;;;;;;;6.53;2.30;;;;;;;18.86;47.34;99874.28;5032367;28;20423;-68
2021/12/27 07:55:29;;;;;;;5.05;1.83;;;;;;;18.87;47.23;99875.09;5033352;28;20029;-67
2021/12/27 07:57:55;;;;;;;7.65;2.20;;;;;;;18.87;47.05;99875.09;5032938;28;20037;-68
2021/12/27 08:00:21;;;;;;;7.80;2.00;;;;;;;18.87;47.11;99870.66;5032517;28;20104;-68
2021/12/27 08:02:46;;;;;;;5.95;1.75;;;;;;;18.88;47.22;99867.03;5032979;28;20056;-67
2021/12/27 08:05:11;;;;;;;7.05;2.20;;;;;;;18.89;47.33;99870.53;5033162;28;20030;-67
2021/12/27 08:07:37;;;;;;;6.97;2.10;;;;;;;18.89;47.13;99875.81;5032253;28;20025;-67
2021/12/27 08:10:03;;;;;;;6.45;2.72;;;;;;;18.87;47.17;99868.03;5032318;28;20116;-68
2021/12/27 08:12:29;;;;;;;5.57;2.15;;;;;;;18.88;47.35;99876.78;5032963;28;20095;-67
2021/12/27 08:14:56;;;;;;;6.75;2.13;;;;;;;18.89;47.25;99881.91;5031832;28;20022;-68
2021/12/27 08:17:22;;;;;;;6.85;2.20;;;;;;;18.89;47.27;99881.91;5033141;28;20017;-67
2021/12/27 08:19:47;;;;;;;6.60;2.20;;;;;;;18.90;47.22;99882.72;5032654;28;20022;-67
2021/12/27 08:22:33;;;;;;;5.35;1.60;;;;;;;18.88;47.15;99879.41;5031921;28;21553;-67
2021/12/27 08:24:58;;;;;;;5.57;1.60;;;;;;;18.90;47.40;99880.06;5032010;28;20051;-67
2021/12/27 08:27:26;;;;;;;5.35;1.90;;;;;;;18.90;47.35;99875.66;5032772;28;20022;-67
2021/12/27 08:29:52;;;;;;;7.03;2.00;;;;;;;18.90;47.33;99877.44;5031875;28;20034;-68
2021/12/27 08:32:18;;;;;;;5.88;1.70;;;;;;;18.90;47.36;99866.88;5032704;28;20028;-68
2021/12/27 08:34:46;;;;;;;6.45;2.17;;;;;;;18.90;47.36;99872.16;5032438;28;20025;-68
2021/12/27 08:37:12;;;;;;;6.68;2.08;;;;;;;18.90;47.41;99866.88;5031926;28;20044;-67
2021/12/27 08:39:38;;;;;;;4.72;1.77;;;;;;;18.90;47.27;99864.25;5032525;28;20104;-67
2021/12/27 08:42:07;;;;;;;6.22;1.83;;;;;;;18.91;47.54;99858.81;5032225;28;20482;-67
2021/12/27 08:44:33;;;;;;;5.32;1.98;;;;;;;18.91;47.31;99853.53;5031928;28;20409;-67
2021/12/27 08:46:58;;;;;;;9.55;2.22;;;;;;;18.91;47.50;99856.16;5032503;28;20038;-67
2021/12/27 08:49:23;;;;;;;5.07;2.47;;;;;;;18.93;47.48;99846.31;5031903;28;20088;-67
2021/12/27 08:51:48;;;;;;;7.25;1.98;;;;;;;18.93;47.28;99845.44;5032274;28;20266;-68
2021/12/27 08:54:14;;;;;;;10.40;2.00;;;;;;;18.92;47.36;99827.97;5032501;28;20025;-65
2021/12/27 08:56:42;;;;;;;5.47;1.98;;;;;;;18.92;47.51;99823.50;5031415;28;20287;-67
2021/12/27 08:59:07;;;;;;;7.97;2.15;;;;;;;18.94;47.55;99823.34;5032444;28;20030;-67
2021/12/27 09:01:33;;;;;;;4.95;1.70;;;;;;;18.92;47.33;99826.16;5032570;28;20099;-67
2021/12/27 09:03:58;;;;;;;7.28;2.03;;;;;;;18.94;47.46;99831.28;5031320;28;20375;-66
2021/12/27 09:06:23;;;;;;;5.87;2.03;;;;;;;18.93;47.44;99834.88;5032599;28;20036;-67
2021/12/27 09:08:49;;;;;;;6.13;1.70;;;;;;;18.93;47.38;99834.88;5032029;28;20270;-64
2021/12/27 09:11:14;;;;;;;7.35;2.08;;;;;;;18.94;47.34;99833.91;5031574;28;20042;-67
2021/12/27 09:13:39;;;;;;;7.47;1.98;;;;;;;18.93;47.45;99832.25;5032235;28;20040;-65
2021/12/27 09:16:05;;;;;;;6.82;1.90;;;;;;;18.92;47.58;99834.06;5032477;28;20037;-65
2021/12/27 09:18:32;;;;;;;8.30;2.10;;;;;;;18.93;47.53;99841.03;5031628;28;20070;-67
2021/12/27 09:20:58;;;;;;;9.30;2.20;;;;;;;18.93;47.60;99834.88;5032122;28;20032;-65
2021/12/27 09:23:26;;;;;;;6.13;1.90;;;;;;;18.93;47.33;99840.16;5034493;28;20117;-66
2021/12/27 09:25:51;;;;;;;5.45;1.80;;;;;;;18.93;47.54;99840.16;5034791;28;20029;-67
2021/12/27 09:28:17;;;;;;;7.30;1.83;;;;;;;18.92;47.38;99847.28;5036170;28;20028;-68
2021/12/27 09:30:43;;;;;;;4.97;2.05;;;;;;;18.93;47.32;99835.75;5035829;28;20040;-67
2021/12/27 09:33:08;;;;;;;6.50;2.10;;;;;;;18.92;47.44;99831.44;5035203;28;20037;-68
2021/12/27 09:35:37;;;;;;;6.18;2.10;;;;;;;18.90;47.28;99822.00;5035924;28;20508;-67
2021/12/27 09:38:03;;;;;;;7.45;1.55;;;;;;;18.93;47.44;99824.31;5035493;28;20025;-67
2021/12/27 09:40:29;;;;;;;8.10;2.25;;;;;;;18.93;47.51;99830.47;5034899;28;20088;-66
2021/12/27 09:42:55;;;;;;;8.25;2.22;;;;;;;18.94;47.36;99820.72;5035600;28;20025;-66
2021/12/27 09:45:21;;;;;;;5.55;2.00;;;;;;;18.94;47.40;99820.72;5035656;28;20029;-67
2021/12/27 09:47:49;;;;;;;7.82;1.88;;;;;;;18.94;47.45;99820.72;5034577;28;20116;-66
2021/12/27 09:50:25;;;;;;;6.13;1.90;;;;;;;18.94;47.60;99821.53;5035612;28;20042;-67
2021/12/27 09:52:50;;;;;;;6.18;1.60;;;;;;;18.94;47.38;99816.25;5034357;28;20536;-67
2021/12/27 09:55:16;;;;;;;6.38;1.92;;;;;;;18.95;47.31;99814.47;5035630;28;20124;-66
2021/12/27 09:57:42;;;;;;;9.43;1.80;;;;;;;18.95;47.53;99819.75;5035299;28;20021;-68
2021/12/27 10:00:10;;;;;;;7.07;1.90;;;;;;;18.96;47.59;99824.03;5034780;28;20079;-69
2021/12/27 10:02:37;;;;;;;6.50;1.95;;;;;;;18.96;47.66;99821.38;5035377;28;20112;-68
2021/12/27 10:05:03;;;;;;;5.57;2.00;;;;;;;18.96;47.81;99808.19;5034974;28;20124;-67
2021/12/27 10:07:29;;;;;;;7.32;2.10;;;;;;;18.97;47.58;99791.38;5034491;28;20496;-67
2021/12/27 10:09:58;;;;;;;9.10;1.92;;;;;;;18.96;47.86;99779.13;5035002;28;20026;-66
2021/12/27 10:12:23;;;;;;;6.35;1.92;;;;;;;18.97;47.64;99783.44;5035294;28;20037;-68
2021/12/27 10:15:00;;;;;;;6.57;2.35;;;;;;;18.95;47.65;99793.34;5034236;28;20032;-67
2021/12/27 10:17:29;;;;;;;6.45;2.15;;;;;;;18.91;46.94;99784.88;5035171;28;20098;-66
2021/12/27 10:19:55;;;;;;;7.55;1.90;;;;;;;18.92;47.71;99791.00;5034772;28;20040;-67
2021/12/27 10:22:20;;;;;;;7.35;1.65;;;;;;;18.93;47.93;99793.50;5034486;28;20037;-68
2021/12/27 10:24:49;;;;;;;7.10;1.98;;;;;;;18.90;47.95;99779.75;5034612;28;20040;-66
2021/12/27 10:27:15;;;;;;;11.68;1.75;;;;;;;18.94;47.83;99797.78;5035139;28;20034;-68
2021/12/27 10:29:41;;;;;;;6.13;1.77;;;;;;;18.95;47.94;99791.53;5033924;28;20377;-68
2021/12/27 10:32:24;;;;;;;6.57;1.85;;;;;;;18.96;47.95;99789.69;5034311;28;20116;-67
2021/12/27 10:34:52;;;;;;;8.30;1.70;;;;;;;18.96;47.74;99787.91;5033222;28;20353;-68
2021/12/27 10:37:22;;;;;;;6.40;1.70;;;;;;;18.96;47.81;99787.91;5034714;28;20484;-69
2021/12/27 10:39:53;;;;;;;4.95;1.50;;;;;;;18.99;47.75;99784.97;5034326;28;20465;-67
2021/12/27 10:42:37;;;;;;;5.85;1.58;;;;;;;18.98;47.94;99779.84;5033916;28;20041;-69
2021/12/27 10:45:22;;;;;;;7.97;1.90;;;;;;;18.98;47.83;99783.28;5034325;28;20034;-67
2021/12/27 10:47:53;;;;;;;6.95;2.05;;;;;;;18.99;47.77;99777.03;5033931;28;20278;-68
2021/12/27 10:50:25;;;;;;;7.32;1.88;;;;;;;19.00;48.00;99769.94;5033838;28;20053;-68
2021/12/27 10:52:55;;;;;;;5.13;1.70;;;;;;;19.00;47.97;99769.94;5034177;28;20477;-68
2021/12/27 10:55:24;;;;;;;4.78;1.60;;;;;;;18.99;47.99;99771.75;5033824;28;20041;-67
2021/12/27 10:57:50;;;;;;;8.30;2.00;;;;;;;19.01;47.80;99774.25;5033376;28;20029;-67
2021/12/27 11:00:31;;;;;;;10.20;2.55;;;;;;;19.00;47.91;99769.94;5034496;28;20053;-67
2021/12/27 11:02:58;;;;;;;7.40;1.58;;;;;;;18.99;47.82;99766.47;5033153;28;20436;-67
2021/12/27 11:05:26;;;;;;;5.63;1.50;;;;;;;18.99;47.88;99771.75;5034131;28;20045;-68
2021/12/27 11:07:54;;;;;;;6.63;1.80;;;;;;;19.00;47.91;99776.03;5033839;28;20026;-69
2021/12/27 11:10:21;;;;;;;5.53;1.60;;;;;;;19.01;48.06;99782.16;5033565;28;20030;-69
2021/12/27 11:12:48;;;;;;;7.38;1.80;;;;;;;19.01;48.08;99775.06;5033873;28;20017;-68
2021/12/27 11:15:14;;;;;;;8.93;1.98;;;;;;;19.01;48.00;99761.84;5034184;28;20035;-68
2021/12/27 11:17:40;;;;;;;7.30;1.70;;;;;;;19.02;48.17;99765.31;5033015;28;20021;-68
2021/12/27 11:20:08;;;;;;;9.02;1.60;;;;;;;19.01;47.87;99767.13;5033934;28;20048;-68
2021/12/27 11:22:37;;;;;;;5.38;1.52;;;;;;;19.02;48.02;99757.41;5033577;28;20128;-70
2021/12/27 11:25:51;;;;;;;5.85;1.67;;;;;;;19.01;48.18;99753.94;5032816;28;20041;-69
2021/12/27 11:28:35;;;;;;;8.98;1.80;;;;;;;19.00;48.11;99751.44;5010763;28;20133;-67
2021/12/27 11:31:14;;;;;;;8.30;2.08;;;;;;;19.00;48.21;99751.44;5032792;28;20026;-69
2021/12/27 11:34:00;;;;;;;7.07;1.80;;;;;;;18.99;48.30;99745.34;5033557;28;20041;-68